WetterOnline ( https://www.wetteronline.ch )

Wetter aktuell Rostock

Aktuelles Wetter: Rostock-Warnemünde (10m)

6-stündlich | Neueste Meldungen
Ortszeit Temperatur Wetter
Di, 19.11. 7:00 4.8° C bewölkt
Di, 19.11. 1:00 6.5° C wolkig
Mo, 18.11. 19:00 7.8° C Regen
Mo, 18.11. 13:00 9.7° C wolkig
Mo, 18.11. 7:00 7.2° C wolkig
Mo, 18.11. 1:00 8.0° C leicht bewölkt
So, 17.11. 19:00 7.4° C bedeckt
So, 17.11. 13:00 6.0° C bedeckt
Ortszeit Temperatur Wetter
Di, 19.11. 10:30 8.0° C bewölkt
Di, 19.11. 10:20 8.0° C Sprühregen
Di, 19.11. 10:10 7.8° C Sprühregen
Di, 19.11. 10:00 7.6° C Sprühregen
Di, 19.11. 9:50 7.6° C Sprühregen
Di, 19.11. 9:40 7.4° C leichter Regen
Di, 19.11. 9:30 6.9° C leichter Regen
Di, 19.11. 9:00 6.2° C Sprühregen
Ortszeit Relative Feuchte Sichtweite
Di, 19.11. 7:00 89% 10 km
Di, 19.11. 1:00 82% 35 km
Mo, 18.11. 19:00 91% 19 km
Mo, 18.11. 13:00 86% 17 km
Mo, 18.11. 7:00 96% 8 km
Mo, 18.11. 1:00 93% 13 km
So, 17.11. 19:00 84% 35 km
So, 17.11. 13:00 78% 28 km
Ortszeit Relative Feuchte Sichtweite
Di, 19.11. 10:30 89% 23 km
Di, 19.11. 10:20 89% -
Di, 19.11. 10:10 91% -
Di, 19.11. 10:00 93% 5.0 km
Di, 19.11. 9:50 93% -
Di, 19.11. 9:40 93% -
Di, 19.11. 9:30 93% 12 km
Di, 19.11. 9:00 94% 7 km
Ortszeit Niederschlagsmenge Niederschlagsart
Di, 19.11. 7:00 0.1 l/m2 in 12 Std. Regen
Di, 19.11. 1:00 0.1 l/m2 in 6 Std. Regen
Mo, 18.11. 19:00 0.5 l/m2 in 12 Std. Regen
Mo, 18.11. 13:00 0.0 l/m2 in 6 Std. -
Mo, 18.11. 7:00 0.0 l/m2 in 12 Std. -
Mo, 18.11. 1:00 0.0 l/m2 in 6 Std. -
So, 17.11. 19:00 1 l/m2 in 12 Std. Regen
So, 17.11. 13:00 0.0 l/m2 in 6 Std. -
Ortszeit Niederschlagsmenge Niederschlagsart
Di, 19.11. 10:30 0.1 l/m2 in 1 Std. Schneeregen
Di, 19.11. 10:20 keine Meldung -
Di, 19.11. 10:10 keine Meldung -
Di, 19.11. 10:00 0.7 l/m2 in 1 Std. Regen
Di, 19.11. 9:50 keine Meldung -
Di, 19.11. 9:40 keine Meldung -
Di, 19.11. 9:30 0.2 l/m2 in 1 Std. -
Di, 19.11. 9:00 0.4 l/m2 in 1 Std. Regen
Ortszeit Stärke Spitze Richtung
km/h Bft. km/h Grad Sektor
Di, 19.11. 7:00 17 3 44 170° S
Di, 19.11. 1:00 13 3 46 170° S
Mo, 18.11. 19:00 18 3 36 180° S
Mo, 18.11. 13:00 11 2 25 140° SO
Mo, 18.11. 7:00 11 2 25 110° O
Mo, 18.11. 1:00 11 2 32 100° O
So, 17.11. 19:00 22 4 36 60° NO
So, 17.11. 13:00 6 1 20 50° NO
Ortszeit Stärke Spitze Richtung
km/h Bft. km/h Grad Sektor
Di, 19.11. 10:30 24 4 50 220° SW
Di, 19.11. 10:20 24 4 - 220° SW
Di, 19.11. 10:10 28 4 - 210° SW
Di, 19.11. 10:00 26 4 41 210° SW
Di, 19.11. 9:50 26 4 - 210° SW
Di, 19.11. 9:40 22 4 - 210° SW
Di, 19.11. 9:30 22 4 40 210° SW
Di, 19.11. 9:00 22 4 40 190° S
Ortszeit Untergrenze Bedeckung Gattung
total tief tief mittel hoch
Di, 19.11. 7:00 270 m 7/8 7/8 - - -
Di, 19.11. 1:00 1500 m 6/8 4/8 - - -
Mo, 18.11. 19:00 210 m 8/8 8/8 - - -
Mo, 18.11. 13:00 570 m 8/8 2/8 - - -
Mo, 18.11. 7:00 6000 m 8/8 2/8 - - -
Mo, 18.11. 1:00 240 m 5/8 1/8 - - -
So, 17.11. 19:00 840 m 8/8 8/8 - - -
So, 17.11. 13:00 3000 m 8/8 8/8 - - -
Ortszeit Bedeckungsgrad in Achtel und Wolkenuntergrenze
Di, 19.11. 10:30 5(330m) 7(570m) 7(780m)
Di, 19.11. 10:20 5(330m) 7(570m) 7(780m)
Di, 19.11. 10:10 3(270m) 6(360m) 7(570m)
Di, 19.11. 10:00 5(270m) 7(480m) 8(660m)
Di, 19.11. 9:50 5(270m) 7(480m) 8(660m)
Di, 19.11. 9:40 6(240m) 7(360m)
Di, 19.11. 9:30 6(240m) 7(360m)
Di, 19.11. 9:00 7(180m) 7(300m)
Ortszeit Luftdruck NN (hPa) Tendenz (hPa in 3 Std.)
Di, 19.11. 7:00 1005 - 0,7
Di, 19.11. 1:00 1006 - 0,2
Mo, 18.11. 19:00 1005 + 1,0
Mo, 18.11. 13:00 1004 - 0,8
Mo, 18.11. 7:00 1005 - 0,7
Mo, 18.11. 1:00 1007 - 2,5
So, 17.11. 19:00 1012 - 2,4
So, 17.11. 13:00 1016 - 0,7
Ortszeit Luftdruck NN (hPa) Tendenz (hPa in 3 Std.)
Di, 19.11. 10:30 1009 + 3,2
Di, 19.11. 10:20 1009 keine Meldung
Di, 19.11. 10:10 1008 keine Meldung
Di, 19.11. 10:00 1008 + 2,6
Di, 19.11. 9:50 1008 keine Meldung
Di, 19.11. 9:40 1008 keine Meldung
Di, 19.11. 9:30 1007 + 1,9
Di, 19.11. 9:00 1006 + 1,0
Ortszeit Schneehöhe (cm)
Di, 19.11. 7:00 0
Di, 19.11. 1:00 0
Mo, 18.11. 19:00 0
Mo, 18.11. 13:00 0
Mo, 18.11. 7:00 0
Mo, 18.11. 1:00 0
So, 17.11. 19:00 0
So, 17.11. 13:00 0
Ortszeit Schneehöhe (cm)
Di, 19.11. 10:30 0
Di, 19.11. 10:20 0
Di, 19.11. 10:10 0
Di, 19.11. 10:00 0
Di, 19.11. 9:50 0
Di, 19.11. 9:40 0
Di, 19.11. 9:30 0
Di, 19.11. 9:00 0
Link zu dieser Seite / Seite empfehlen

Das Wetter in ...